Time;durP1;ratioP1;P1;durP2;ratioP2;P2;SDS_P1;SDS_P2;PMS_P1;PMS_P2;Temp;Humidity;BMP_temperature;BMP_pressure;BME280_temperature;BME280_humidity;BME280_pressure;Samples;Min_cycle;Max_cycle;Signal;HPM_P1;HPM_P2
2022/03/27 00:00:05;;;;;;;;;;;6.20;99.90;;;;;;5085083;28;19929;-60
2022/03/27 00:02:39;;;;;;;;;;;6.00;99.90;;;;;;5082467;28;20011;-60
2022/03/27 00:05:05;;;;;;;;;;;6.00;99.90;;;;;;5084630;28;20382;-60
2022/03/27 00:07:30;;;;;;;;;;;6.00;99.90;;;;;;5083448;28;19924;-60
2022/03/27 00:09:56;;;;;;;;;;;5.90;99.90;;;;;;5083081;28;20352;-60
2022/03/27 00:12:22;;;;;;;;;;;5.80;99.90;;;;;;5083333;28;19924;-59
2022/03/27 00:14:47;;;;;;;;;;;5.80;99.90;;;;;;5085249;28;19955;-60
2022/03/27 00:17:13;;;;;;;;;;;5.70;99.90;;;;;;5081825;28;19928;-60
2022/03/27 00:19:38;;;;;;;;;;;5.70;99.90;;;;;;5083627;28;19924;-60
2022/03/27 00:22:05;;;;;;;;;;;5.60;99.90;;;;;;5085013;28;20011;-60
2022/03/27 00:24:30;;;;;;;;;;;5.50;99.90;;;;;;5082542;28;19978;-60
2022/03/27 00:26:56;;;;;;;;;;;5.40;99.90;;;;;;5083232;28;19932;-60
2022/03/27 00:29:22;;;;;;;;;;;5.40;99.90;;;;;;5083883;28;20492;-60
2022/03/27 00:31:48;;;;;;;;;;;5.40;99.90;;;;;;5082936;28;19977;-60
2022/03/27 00:34:14;;;;;;;;;;;5.30;99.90;;;;;;5082859;28;20026;-60
2022/03/27 00:36:40;;;;;;;;;;;5.20;99.90;;;;;;5082841;28;19924;-59
2022/03/27 00:39:05;;;;;;;;;;;5.20;99.90;;;;;;5083262;28;19932;-60
2022/03/27 00:41:31;;;;;;;;;;;5.20;99.90;;;;;;5082263;28;20385;-60
2022/03/27 00:43:57;;;;;;;;;;;5.20;99.90;;;;;;5083638;28;19947;-60
2022/03/27 00:46:22;;;;;;;;;;;5.20;99.90;;;;;;5083685;28;20496;-60
2022/03/27 00:48:48;;;;;;;;;;;5.20;99.90;;;;;;5083634;28;19931;-60
2022/03/27 00:51:14;;;;;;;;;;;5.20;99.90;;;;;;5081874;28;19932;-60
2022/03/27 00:53:39;;;;;;;;;;;5.10;99.90;;;;;;5083143;28;19930;-60
2022/03/27 00:56:05;;;;;;;;;;;5.20;99.90;;;;;;5082318;28;20452;-60
2022/03/27 00:58:30;;;;;;;;;;;5.10;99.90;;;;;;5083482;28;19970;-60
2022/03/27 01:01:03;;;;;;;;;;;5.20;99.90;;;;;;5085032;28;19924;-60
2022/03/27 01:03:30;;;;;;;;;;;5.10;99.90;;;;;;5083167;28;19924;-60
2022/03/27 01:05:58;;;;;;;;;;;5.20;99.90;;;;;;5078424;28;19920;-60
2022/03/27 01:11:12;;;;;;;;;;;5.10;99.90;;;;;;5072681;28;19998;-60
2022/03/27 01:13:39;;;;;;;;;;;5.20;99.90;;;;;;5091289;28;19931;-60
2022/03/27 01:16:11;;;;;;;;;;;5.20;99.90;;;;;;5093729;28;19932;-60
2022/03/27 01:18:37;;;;;;;;;;;5.20;99.90;;;;;;5093190;28;19931;-60
2022/03/27 01:21:03;;;;;;;;;;;5.10;99.90;;;;;;5092236;28;19928;-60
2022/03/27 01:23:28;;;;;;;;;;;5.10;99.90;;;;;;5092442;28;19931;-60
2022/03/27 01:25:54;;;;;;;;;;;5.20;99.90;;;;;;5092977;28;19928;-60
2022/03/27 01:28:20;;;;;;;;;;;5.10;99.90;;;;;;5092714;28;19977;-60
2022/03/27 01:30:45;;;;;;;;;;;5.20;99.90;;;;;;5093134;28;19978;-60
2022/03/27 01:33:13;;;;;;;;;;;5.30;99.90;;;;;;5092873;28;19924;-60
2022/03/27 01:35:38;;;;;;;;;;;5.30;99.90;;;;;;5086165;28;20380;-60
2022/03/27 01:38:04;;;;;;;;;;;5.30;99.90;;;;;;5109325;28;19928;-60
2022/03/27 01:40:30;;;;;;;;;;;5.40;99.90;;;;;;5090579;28;19924;-60
2022/03/27 01:42:55;;;;;;;;;;;5.40;99.90;;;;;;5092178;28;19924;-60
2022/03/27 01:45:21;;;;;;;;;;;5.50;99.90;;;;;;5093428;28;19924;-60
2022/03/27 01:47:47;;;;;;;;;;;5.50;99.90;;;;;;5092185;28;19924;-60
2022/03/27 01:50:13;;;;;;;;;;;5.40;99.90;;;;;;5093069;28;19981;-60
2022/03/27 01:52:38;;;;;;;;;;;5.50;99.90;;;;;;5093324;28;19924;-60
2022/03/27 01:55:06;;;;;;;;;;;5.50;99.90;;;;;;5092097;28;19924;-60
2022/03/27 01:57:32;;;;;;;;;;;5.40;99.90;;;;;;5091558;28;20370;-60
2022/03/27 01:59:57;;;;;;;;;;;5.30;99.90;;;;;;5093182;28;19969;-60
2022/03/27 02:02:24;;;;;;;;;;;5.20;99.90;;;;;;5094435;28;19932;-60
2022/03/27 02:04:52;;;;;;;;;;;5.10;99.90;;;;;;5096560;28;19931;-59
2022/03/27 02:07:18;;;;;;;;;;;5.00;99.90;;;;;;5097336;28;19977;-60
2022/03/27 02:09:44;;;;;;;;;;;4.90;99.90;;;;;;5095775;28;19943;-60
2022/03/27 02:12:10;;;;;;;;;;;4.90;99.90;;;;;;5096876;28;20378;-60
2022/03/27 02:14:35;;;;;;;;;;;4.80;99.90;;;;;;5096364;28;20065;-60
2022/03/27 02:17:01;;;;;;;;;;;4.80;99.90;;;;;;5095481;28;19998;-59
2022/03/27 02:19:27;;;;;;;;;;;4.80;99.90;;;;;;5096314;28;19931;-60
2022/03/27 02:21:53;;;;;;;;;;;4.80;99.90;;;;;;5096833;28;19931;-59
2022/03/27 02:24:18;;;;;;;;;;;4.80;99.90;;;;;;5094003;28;19924;-59
2022/03/27 02:26:45;;;;;;;;;;;4.70;99.90;;;;;;5096787;28;19924;-60
2022/03/27 02:29:12;;;;;;;;;;;4.60;99.90;;;;;;5095105;28;20484;-60
2022/03/27 02:31:38;;;;;;;;;;;4.60;99.90;;;;;;5089067;28;20321;-60
2022/03/27 02:34:04;;;;;;;;;;;4.60;99.90;;;;;;5085805;28;20019;-60
2022/03/27 02:36:29;;;;;;;;;;;4.60;99.90;;;;;;5089826;28;19964;-60
2022/03/27 02:38:55;;;;;;;;;;;4.60;99.90;;;;;;5085040;28;20358;-60
2022/03/27 02:41:21;;;;;;;;;;;4.60;99.90;;;;;;5086472;28;19924;-60
2022/03/27 02:43:47;;;;;;;;;;;4.60;99.90;;;;;;5086069;28;20001;-60
2022/03/27 02:46:12;;;;;;;;;;;4.50;99.90;;;;;;5085173;28;20371;-59
2022/03/27 02:48:38;;;;;;;;;;;4.40;99.90;;;;;;5079704;28;19950;-59
2022/03/27 02:51:05;;;;;;;;;;;4.30;99.90;;;;;;5094722;28;19976;-59
2022/03/27 02:53:30;;;;;;;;;;;4.30;99.90;;;;;;5095190;28;20451;-59
2022/03/27 02:55:56;;;;;;;;;;;4.20;99.90;;;;;;5095617;28;19924;-60
2022/03/27 02:58:22;;;;;;;;;;;4.20;99.90;;;;;;5095143;28;19924;-60
2022/03/27 03:00:47;;;;;;;;;;;4.10;99.90;;;;;;5086381;28;19925;-59
2022/03/27 03:03:13;;;;;;;;;;;4.10;99.90;;;;;;5075191;28;19935;-59
2022/03/27 03:05:40;;;;;;;;;;;4.10;99.90;;;;;;5075024;28;20255;-59
2022/03/27 03:08:11;;;;;;;;;;;4.10;99.90;;;;;;5089373;28;20378;-60
2022/03/27 03:10:38;;;;;;;;;;;4.10;99.90;;;;;;5095224;28;20286;-60
2022/03/27 03:13:04;;;;;;;;;;;4.00;99.90;;;;;;5094297;28;19989;-59
2022/03/27 03:15:32;;;;;;;;;;;4.00;99.90;;;;;;5091778;28;21280;-59
2022/03/27 03:17:57;;;;;;;;;;;4.00;99.90;;;;;;5083133;28;19929;-59
2022/03/27 03:20:24;;;;;;;;;;;4.00;99.90;;;;;;5083819;28;19964;-59
2022/03/27 03:22:50;;;;;;;;;;;4.00;99.90;;;;;;5085436;28;19995;-60
2022/03/27 03:25:15;;;;;;;;;;;4.00;99.90;;;;;;5085839;28;20386;-60
2022/03/27 03:27:41;;;;;;;;;;;4.10;99.90;;;;;;5086348;28;19994;-59
2022/03/27 03:30:07;;;;;;;;;;;4.20;99.90;;;;;;5094237;28;19924;-59
2022/03/27 03:32:34;;;;;;;;;;;4.20;99.90;;;;;;5095105;28;19928;-59
2022/03/27 03:35:00;;;;;;;;;;;4.20;99.90;;;;;;5087828;28;20387;-60
2022/03/27 03:37:26;;;;;;;;;;;4.30;99.90;;;;;;5107907;28;20011;-59
2022/03/27 03:39:52;;;;;;;;;;;4.30;99.90;;;;;;5114647;28;20344;-59
2022/03/27 03:42:17;;;;;;;;;;;4.30;99.90;;;;;;5109842;28;20422;-60
2022/03/27 03:44:43;;;;;;;;;;;4.20;99.90;;;;;;5093631;28;19963;-59
2022/03/27 03:47:09;;;;;;;;;;;4.20;99.90;;;;;;5093922;28;19971;-60
2022/03/27 03:49:35;;;;;;;;;;;4.20;99.90;;;;;;5095244;28;20011;-60
2022/03/27 03:52:01;;;;;;;;;;;4.10;99.90;;;;;;5094936;28;19982;-59
2022/03/27 03:54:26;;;;;;;;;;;4.10;99.90;;;;;;5093853;28;19924;-59
2022/03/27 03:56:52;;;;;;;;;;;4.10;99.90;;;;;;5095238;28;20012;-60
2022/03/27 03:59:18;;;;;;;;;;;4.20;99.90;;;;;;5094762;28;19924;-60
2022/03/27 04:01:44;;;;;;;;;;;4.10;99.90;;;;;;5077193;28;19982;-60
2022/03/27 04:04:09;;;;;;;;;;;4.10;99.90;;;;;;5074677;28;19993;-60
2022/03/27 04:06:35;;;;;;;;;;;4.20;99.90;;;;;;5074673;28;19970;-60
2022/03/27 04:09:00;;;;;;;;;;;4.20;99.90;;;;;;5077269;28;19967;-59
2022/03/27 04:11:26;;;;;;;;;;;4.20;99.90;;;;;;5094487;28;19982;-60
2022/03/27 04:13:52;;;;;;;;;;;4.40;99.90;;;;;;5093187;28;19924;-59
2022/03/27 04:16:18;;;;;;;;;;;4.30;99.90;;;;;;5092048;28;20396;-59
2022/03/27 04:18:44;;;;;;;;;;;4.30;99.90;;;;;;5094240;28;20019;-59
2022/03/27 04:21:09;;;;;;;;;;;4.30;99.90;;;;;;5094333;28;20019;-59
2022/03/27 04:23:36;;;;;;;;;;;4.40;99.90;;;;;;5093303;28;19947;-59
2022/03/27 04:26:02;;;;;;;;;;;4.40;99.90;;;;;;5094609;28;20370;-59
2022/03/27 04:28:28;;;;;;;;;;;4.40;99.90;;;;;;5093884;28;20374;-59
2022/03/27 04:30:53;;;;;;;;;;;4.50;99.90;;;;;;5093035;28;19927;-60
2022/03/27 04:33:19;;;;;;;;;;;4.50;99.90;;;;;;5094348;28;19969;-59
2022/03/27 04:35:45;;;;;;;;;;;4.50;99.90;;;;;;5093773;28;19924;-59
2022/03/27 04:38:11;;;;;;;;;;;4.60;99.90;;;;;;5111468;28;19927;-59
2022/03/27 04:40:37;;;;;;;;;;;4.50;99.90;;;;;;5114267;27;20305;-59
2022/03/27 04:43:02;;;;;;;;;;;4.50;99.90;;;;;;5113045;28;20266;-59
2022/03/27 04:45:28;;;;;;;;;;;4.50;99.90;;;;;;5098474;28;19931;-59
2022/03/27 04:47:54;;;;;;;;;;;4.50;99.90;;;;;;5094180;28;20374;-59
2022/03/27 04:50:20;;;;;;;;;;;4.50;99.90;;;;;;5093760;28;19969;-59
2022/03/27 04:52:45;;;;;;;;;;;4.50;99.90;;;;;;5093230;28;19924;-59
2022/03/27 04:55:11;;;;;;;;;;;4.60;99.90;;;;;;5093824;28;20414;-59
2022/03/27 04:57:39;;;;;;;;;;;4.60;99.90;;;;;;5093106;28;19931;-59
2022/03/27 05:00:10;;;;;;;;;;;4.60;99.90;;;;;;5090986;28;20396;-59
2022/03/27 05:02:36;;;;;;;;;;;4.70;99.90;;;;;;5082776;28;19930;-59
2022/03/27 05:05:04;;;;;;;;;;;4.70;99.90;;;;;;5092930;28;19951;-59
2022/03/27 05:07:30;;;;;;;;;;;4.70;99.90;;;;;;5093472;28;19931;-59
2022/03/27 05:09:55;;;;;;;;;;;4.70;99.90;;;;;;5093572;28;19924;-60
2022/03/27 05:12:21;;;;;;;;;;;4.70;99.90;;;;;;5092676;28;20401;-59
2022/03/27 05:14:47;;;;;;;;;;;4.70;99.90;;;;;;5093176;28;19924;-60
2022/03/27 05:17:12;;;;;;;;;;;4.70;99.90;;;;;;5092175;28;19931;-59
2022/03/27 05:19:38;;;;;;;;;;;4.70;99.90;;;;;;5092545;28;19924;-59
2022/03/27 05:22:04;;;;;;;;;;;4.70;99.90;;;;;;5091755;28;20007;-59
2022/03/27 05:24:29;;;;;;;;;;;4.80;99.90;;;;;;5093302;28;20378;-59
2022/03/27 05:26:55;;;;;;;;;;;4.80;99.90;;;;;;5091197;28;19931;-59
2022/03/27 05:29:21;;;;;;;;;;;4.80;99.90;;;;;;5090984;28;20290;-59
2022/03/27 05:31:47;;;;;;;;;;;4.80;99.90;;;;;;5093243;28;19932;-59
2022/03/27 05:34:12;;;;;;;;;;;4.80;99.90;;;;;;5091222;28;19931;-59
2022/03/27 05:36:38;;;;;;;;;;;4.70;99.90;;;;;;5097873;28;20042;-59
2022/03/27 05:39:03;;;;;;;;;;;4.70;99.90;;;;;;5094741;28;19935;-59
2022/03/27 05:41:29;;;;;;;;;;;4.70;99.90;;;;;;5090939;28;19925;-59
2022/03/27 05:43:55;;;;;;;;;;;4.70;99.90;;;;;;5093387;28;20373;-60
2022/03/27 05:46:20;;;;;;;;;;;4.70;99.90;;;;;;5091072;28;20350;-59
2022/03/27 05:48:46;;;;;;;;;;;4.70;99.90;;;;;;5092351;28;19950;-60
2022/03/27 05:51:12;;;;;;;;;;;4.70;99.90;;;;;;5093173;28;20421;-59
2022/03/27 05:53:37;;;;;;;;;;;4.60;99.90;;;;;;5092016;28;20361;-60
2022/03/27 05:56:03;;;;;;;;;;;4.70;99.90;;;;;;5092717;28;20023;-60
2022/03/27 05:58:29;;;;;;;;;;;4.70;99.90;;;;;;5093057;28;19931;-59
2022/03/27 06:00:55;;;;;;;;;;;4.70;99.90;;;;;;5082638;28;19925;-59
2022/03/27 06:03:21;;;;;;;;;;;4.70;99.90;;;;;;5073107;28;19924;-60
2022/03/27 06:05:46;;;;;;;;;;;4.70;99.90;;;;;;5092148;28;20401;-60
2022/03/27 06:08:12;;;;;;;;;;;4.70;99.90;;;;;;5091787;28;19924;-59
2022/03/27 06:10:39;;;;;;;;;;;4.70;99.90;;;;;;5091455;28;20370;-60
2022/03/27 06:13:05;;;;;;;;;;;4.70;99.90;;;;;;5092819;28;19928;-59
2022/03/27 06:15:32;;;;;;;;;;;4.70;99.90;;;;;;5090178;28;19924;-59
2022/03/27 06:17:58;;;;;;;;;;;4.80;99.90;;;;;;5074049;28;19924;-59
2022/03/27 06:20:25;;;;;;;;;;;4.80;99.90;;;;;;5071371;28;19975;-60
2022/03/27 06:22:51;;;;;;;;;;;4.90;99.90;;;;;;5085801;28;19931;-59
2022/03/27 06:25:18;;;;;;;;;;;5.00;99.90;;;;;;5091341;28;19920;-60
2022/03/27 06:27:44;;;;;;;;;;;5.30;99.90;;;;;;5091470;28;19928;-59
2022/03/27 06:30:11;;;;;;;;;;;5.30;99.90;;;;;;5091399;28;19971;-60
2022/03/27 06:32:37;;;;;;;;;;;5.40;99.90;;;;;;5093047;28;19919;-59
2022/03/27 06:35:04;;;;;;;;;;;5.50;99.90;;;;;;5086345;28;20291;-60
2022/03/27 06:37:30;;;;;;;;;;;5.60;99.90;;;;;;5104288;28;20328;-60
2022/03/27 06:39:56;;;;;;;;;;;5.80;99.90;;;;;;5103156;28;19924;-60
2022/03/27 06:42:22;;;;;;;;;;;5.90;99.90;;;;;;5093071;28;20010;-59
2022/03/27 06:44:48;;;;;;;;;;;6.00;99.90;;;;;;5091425;28;19923;-60
2022/03/27 06:47:14;;;;;;;;;;;6.00;99.90;;;;;;5091346;28;20014;-59
2022/03/27 06:49:40;;;;;;;;;;;6.10;99.90;;;;;;5096140;28;20023;-59
2022/03/27 06:52:06;;;;;;;;;;;6.20;99.90;;;;;;5093666;28;19920;-60
2022/03/27 06:54:33;;;;;;;;;;;6.20;99.90;;;;;;5096148;28;19947;-60
2022/03/27 06:56:58;;;;;;;;;;;6.40;99.90;;;;;;5093679;28;20011;-60
2022/03/27 06:59:24;;;;;;;;;;;6.40;99.90;;;;;;5095562;28;20019;-60
2022/03/27 07:04:34;;;;;;;;;;;6.70;99.90;;;;;;5075073;28;19935;-59
2022/03/27 07:07:00;;;;;;;;;;;6.90;99.90;;;;;;5088732;28;19923;-60
2022/03/27 07:09:26;;;;;;;;;;;7.00;99.90;;;;;;5095898;28;20317;-60
2022/03/27 07:11:52;;;;;;;;;;;7.20;99.90;;;;;;5095019;28;19931;-60
2022/03/27 07:14:18;;;;;;;;;;;7.40;99.90;;;;;;5094935;28;19924;-60
2022/03/27 07:16:43;;;;;;;;;;;7.50;99.90;;;;;;5095734;28;19953;-60
2022/03/27 07:19:10;;;;;;;;;;;7.70;99.90;;;;;;5094860;28;19924;-59
2022/03/27 07:21:37;;;;;;;;;;;7.80;99.90;;;;;;5094682;28;19924;-60
2022/03/27 07:24:03;;;;;;;;;;;7.90;99.90;;;;;;5094238;28;19968;-60
2022/03/27 07:26:29;;;;;;;;;;;8.00;99.90;;;;;;5094961;28;20433;-60
2022/03/27 07:28:55;;;;;;;;;;;8.20;99.90;;;;;;5095012;28;19928;-60
2022/03/27 07:31:21;;;;;;;;;;;8.40;99.90;;;;;;5094123;28;19931;-60
2022/03/27 07:33:47;;;;;;;;;;;8.50;99.90;;;;;;5094281;28;19924;-60
2022/03/27 07:36:12;;;;;;;;;;;8.50;99.90;;;;;;5090295;28;19934;-60
2022/03/27 07:38:38;;;;;;;;;;;8.70;99.90;;;;;;5115904;28;19924;-60
2022/03/27 07:41:04;;;;;;;;;;;8.90;99.90;;;;;;5111638;28;19924;-60
2022/03/27 07:43:32;;;;;;;;;;;9.00;99.90;;;;;;5094636;28;20286;-60
2022/03/27 07:45:58;;;;;;;;;;;9.30;99.90;;;;;;5095318;28;19965;-60
2022/03/27 07:48:24;;;;;;;;;;;9.40;99.90;;;;;;5094840;28;19928;-60
2022/03/27 07:50:54;;;;;;;;;;;9.50;99.90;;;;;;5094655;28;19935;-60
2022/03/27 07:53:20;;;;;;;;;;;9.60;99.90;;;;;;5094399;28;20038;-60
2022/03/27 07:55:45;;;;;;;;;;;9.70;99.90;;;;;;5095058;28;20010;-60
2022/03/27 07:58:11;;;;;;;;;;;9.60;99.90;;;;;;5094019;28;20015;-60
2022/03/27 08:00:37;;;;;;;;;;;9.60;99.90;;;;;;5087139;28;19978;-60
2022/03/27 08:03:02;;;;;;;;;;;9.70;99.90;;;;;;5074499;28;20024;-60
2022/03/27 08:05:28;;;;;;;;;;;9.90;99.90;;;;;;5076561;28;19928;-60
2022/03/27 08:07:54;;;;;;;;;;;10.10;99.90;;;;;;5090228;28;20073;-60
2022/03/27 08:10:20;;;;;;;;;;;10.00;99.90;;;;;;5094597;28;19924;-60
2022/03/27 08:12:46;;;;;;;;;;;10.20;99.90;;;;;;5094125;28;19924;-60
2022/03/27 08:15:12;;;;;;;;;;;10.40;99.90;;;;;;5094056;28;19924;-60
2022/03/27 08:17:38;;;;;;;;;;;10.50;99.90;;;;;;5093859;28;20390;-60
2022/03/27 08:20:04;;;;;;;;;;;10.70;99.90;;;;;;5093896;28;19936;-60
2022/03/27 08:22:29;;;;;;;;;;;10.90;99.90;;;;;;5093769;28;20025;-60
2022/03/27 08:24:55;;;;;;;;;;;11.00;99.90;;;;;;5094509;28;19994;-60
2022/03/27 08:27:21;;;;;;;;;;;10.90;99.90;;;;;;5092208;28;20350;-60
2022/03/27 08:29:47;;;;;;;;;;;10.80;99.90;;;;;;5093267;28;19927;-60
2022/03/27 08:32:14;;;;;;;;;;;10.70;99.90;;;;;;5093915;28;19947;-60
2022/03/27 08:34:40;;;;;;;;;;;10.40;99.90;;;;;;5093197;28;20499;-60
2022/03/27 08:37:08;;;;;;;;;;;10.40;99.90;;;;;;5103009;28;19920;-60
2022/03/27 08:39:34;;;;;;;;;;;10.50;99.90;;;;;;5114655;28;20294;-60
2022/03/27 08:41:59;;;;;;;;;;;10.70;99.90;;;;;;5100444;28;19974;-60
2022/03/27 08:44:27;;;;;;;;;;;10.80;99.90;;;;;;5084159;28;19928;-60
2022/03/27 08:46:53;;;;;;;;;;;10.70;99.90;;;;;;5093960;28;19925;-60
2022/03/27 08:49:27;;;;;;;;;;;10.60;99.90;;;;;;5091681;28;19976;-60
2022/03/27 08:51:52;;;;;;;;;;;10.60;99.90;;;;;;5093700;28;20397;-60
2022/03/27 08:54:21;;;;;;;;;;;10.70;99.90;;;;;;5093929;28;19978;-60
2022/03/27 08:56:49;;;;;;;;;;;10.80;99.90;;;;;;5083770;28;19935;-60
2022/03/27 08:59:14;;;;;;;;;;;10.90;99.90;;;;;;5072094;28;20063;-60
2022/03/27 09:01:40;;;;;;;;;;;11.10;99.90;;;;;;5083998;28;20022;-60
2022/03/27 09:04:06;;;;;;;;;;;11.10;99.90;;;;;;5082644;28;20326;-60
2022/03/27 09:06:33;;;;;;;;;;;11.20;99.90;;;;;;5080662;28;20405;-60
2022/03/27 09:08:58;;;;;;;;;;;11.10;99.90;;;;;;5082285;28;19924;-60
2022/03/27 09:11:24;;;;;;;;;;;11.00;99.90;;;;;;5082388;28;19924;-60
2022/03/27 09:13:51;;;;;;;;;;;11.00;99.90;;;;;;5083520;28;19925;-59
2022/03/27 09:16:16;;;;;;;;;;;11.10;99.90;;;;;;5080507;28;19957;-59
2022/03/27 09:18:44;;;;;;;;;;;11.20;99.90;;;;;;5082154;28;19928;-59
2022/03/27 09:21:10;;;;;;;;;;;11.30;99.90;;;;;;5081828;28;20382;-60
2022/03/27 09:23:35;;;;;;;;;;;11.60;99.90;;;;;;5082794;28;19924;-59
2022/03/27 09:26:03;;;;;;;;;;;11.70;99.90;;;;;;5083037;28;20007;-60
2022/03/27 09:28:28;;;;;;;;;;;11.60;99.90;;;;;;5088728;28;20340;-60
2022/03/27 09:30:55;;;;;;;;;;;11.90;99.90;;;;;;5091851;28;19924;-60
2022/03/27 09:33:31;;;;;;;;;;;11.90;99.90;;;;;;5092403;28;19959;-59
2022/03/27 09:36:08;;;;;;;;;;;12.00;99.90;;;;;;5092528;28;20031;-59
2022/03/27 09:38:34;;;;;;;;;;;12.10;99.90;;;;;;5072387;28;19928;-59
2022/03/27 09:41:00;;;;;;;;;;;12.10;99.90;;;;;;5080184;28;20444;-60
2022/03/27 09:43:25;;;;;;;;;;;12.20;99.90;;;;;;5088315;28;19932;-59
2022/03/27 09:45:56;;;;;;;;;;;12.30;99.90;;;;;;5085508;28;20394;-60
2022/03/27 09:48:22;;;;;;;;;;;12.30;99.90;;;;;;5095703;28;19950;-60
2022/03/27 09:50:48;;;;;;;;;;;12.30;99.90;;;;;;5113345;28;19930;-60
2022/03/27 09:53:24;;;;;;;;;;;12.50;99.90;;;;;;5096462;28;19928;-60
2022/03/27 09:55:56;;;;;;;;;;;12.70;99.90;;;;;;5092204;28;19986;-60
2022/03/27 09:58:40;;;;;;;;;;;12.80;99.90;;;;;;5085405;28;19932;-60
2022/03/27 10:01:07;;;;;;;;;;;12.90;99.90;;;;;;5080640;28;19932;-60
2022/03/27 10:03:34;;;;;;;;;;;13.00;99.90;;;;;;5083087;28;19978;-60
2022/03/27 10:06:01;;;;;;;;;;;12.90;99.90;;;;;;5110761;28;20287;-60
2022/03/27 10:08:26;;;;;;;;;;;13.00;99.90;;;;;;5103005;28;19947;-60
2022/03/27 10:10:53;;;;;;;;;;;13.20;99.90;;;;;;5083000;28;19928;-60
2022/03/27 10:13:21;;;;;;;;;;;13.40;99.90;;;;;;5081702;28;19963;-60
2022/03/27 10:15:51;;;;;;;;;;;13.60;99.90;;;;;;5084880;28;19936;-60
2022/03/27 10:18:20;;;;;;;;;;;13.80;99.90;;;;;;5079145;28;19955;-60
2022/03/27 10:20:49;;;;;;;;;;;14.30;99.90;;;;;;5091211;28;19928;-60
2022/03/27 10:23:22;;;;;;;;;;;14.60;99.90;;;;;;5096271;28;19924;-60
2022/03/27 10:25:50;;;;;;;;;;;15.30;99.90;;;;;;5096429;28;19946;-60
2022/03/27 10:28:16;;;;;;;;;;;;;;;;;;5095622;28;20385;-60
2022/03/27 10:30:42;;;;;;;;;;;16.20;99.90;;;;;;5094781;28;19924;-60
2022/03/27 10:33:08;;;;;;;;;;;;;;;;;;5095822;28;19924;-60
2022/03/27 10:35:37;;;;;;;;;;;17.00;98.40;;;;;;5089246;28;19928;-60
2022/03/27 10:38:15;;;;;;;;;;;17.80;98.60;;;;;;5110546;28;19955;-60
2022/03/27 10:40:59;;;;;;;;;;;18.50;98.20;;;;;;5095972;28;19950;-60
2022/03/27 10:43:32;;;;;;;;;;;19.00;90.90;;;;;;5078986;28;19931;-60
2022/03/27 10:46:12;;;;;;;;;;;19.00;87.30;;;;;;5076277;28;19927;-59
2022/03/27 10:48:42;;;;;;;;;;;19.30;90.40;;;;;;5091830;28;20011;-59
2022/03/27 10:51:08;;;;;;;;;;;19.60;78.10;;;;;;5094155;28;20011;-60
2022/03/27 10:53:33;;;;;;;;;;;20.30;83.60;;;;;;5096352;28;20040;-60
2022/03/27 10:55:59;;;;;;;;;;;20.40;76.00;;;;;;5094703;28;20371;-59
2022/03/27 10:58:26;;;;;;;;;;;20.40;72.90;;;;;;5096260;28;19993;-59
2022/03/27 11:00:52;;;;;;;;;;;20.40;69.50;;;;;;5095873;28;19959;-60
2022/03/27 11:03:37;;;;;;;;;;;20.50;73.00;;;;;;5093325;28;19994;-60
2022/03/27 11:06:03;;;;;;;;;;;21.00;71.80;;;;;;5095789;28;20270;-59
2022/03/27 11:08:29;;;;;;;;;;;21.10;68.00;;;;;;5095671;28;19925;-59
2022/03/27 11:10:58;;;;;;;;;;;21.00;69.10;;;;;;5094521;28;19928;-59
2022/03/27 11:13:25;;;;;;;;;;;21.10;65.00;;;;;;5095505;28;19938;-60
2022/03/27 11:16:04;;;;;;;;;;;21.60;67.20;;;;;;5094483;28;19924;-60
2022/03/27 11:18:35;;;;;;;;;;;21.50;65.40;;;;;;5093189;28;19977;-60
2022/03/27 11:21:00;;;;;;;;;;;21.30;66.90;;;;;;5094117;28;19931;-59
2022/03/27 11:23:27;;;;;;;;;;;21.60;65.50;;;;;;5093912;28;19947;-60
2022/03/27 11:25:53;;;;;;;;;;;22.50;67.60;;;;;;5094536;28;20046;-60
2022/03/27 11:28:20;;;;;;;;;;;22.90;63.60;;;;;;5095480;28;20410;-60
2022/03/27 11:30:47;;;;;;;;;;;23.20;57.70;;;;;;5076420;28;19958;-60
2022/03/27 11:33:18;;;;;;;;;;;22.90;56.50;;;;;;5073032;28;20434;-60
2022/03/27 11:36:04;;;;;;;;;;;22.90;56.40;;;;;;5087311;28;19997;-60
2022/03/27 11:38:31;;;;;;;;;;;23.20;56.10;;;;;;5080253;28;20019;-60
2022/03/27 11:40:57;;;;;;;;;;;23.20;55.60;;;;;;5087557;28;19931;-60
2022/03/27 11:43:30;;;;;;;;;;;23.20;55.70;;;;;;5077720;28;19931;-60
2022/03/27 11:45:56;;;;;;;;;;;23.60;55.40;;;;;;5074001;28;19921;-60
2022/03/27 11:48:22;;;;;;;;;;;24.00;55.90;;;;;;5082207;28;20318;-60
2022/03/27 11:50:48;;;;;;;;;;;24.50;52.60;;;;;;5084959;28;19995;-60
2022/03/27 11:53:14;;;;;;;;;;;24.70;54.90;;;;;;5081984;28;19924;-61
2022/03/27 11:55:40;;;;;;;;;;;25.00;52.00;;;;;;5085066;28;19931;-61
2022/03/27 11:58:07;;;;;;;;;;;25.00;51.00;;;;;;5083477;28;19920;-61
2022/03/27 12:00:36;;;;;;;;;;;24.40;51.60;;;;;;5084832;28;19935;-61
2022/03/27 12:03:02;;;;;;;;;;;24.50;51.90;;;;;;5084990;28;19924;-61
2022/03/27 12:05:33;;;;;;;;;;;23.90;52.00;;;;;;5083857;28;19928;-60
2022/03/27 12:07:59;;;;;;;;;;;24.60;51.50;;;;;;5090877;28;19924;-61
2022/03/27 12:10:26;;;;;;;;;;;24.70;51.80;;;;;;5094212;28;20286;-61
2022/03/27 12:12:55;;;;;;;;;;;24.50;51.30;;;;;;5094856;28;19924;-61
2022/03/27 12:15:21;;;;;;;;;;;24.30;51.10;;;;;;5093369;28;19932;-61
2022/03/27 12:17:46;;;;;;;;;;;24.10;52.00;;;;;;5089922;28;19924;-61
2022/03/27 12:20:12;;;;;;;;;;;24.10;52.80;;;;;;5074169;28;19976;-61
2022/03/27 12:22:42;;;;;;;;;;;23.60;52.00;;;;;;5073087;28;19924;-60
2022/03/27 12:25:17;;;;;;;;;;;23.70;51.20;;;;;;5084477;28;19924;-60
2022/03/27 12:30:33;;;;;;;;;;;23.70;50.90;;;;;;5093958;28;19931;-61
2022/03/27 12:33:00;;;;;;;;;;;23.80;50.60;;;;;;5093313;28;19924;-61
2022/03/27 12:35:26;;;;;;;;;;;24.30;51.20;;;;;;5090488;28;19947;-61
2022/03/27 12:37:51;;;;;;;;;;;24.40;51.20;;;;;;5109889;28;20370;-61
2022/03/27 12:40:17;;;;;;;;;;;24.00;51.20;;;;;;5113202;28;19927;-60
2022/03/27 12:42:44;;;;;;;;;;;24.10;50.10;;;;;;5102403;28;20018;-61
2022/03/27 12:45:11;;;;;;;;;;;24.10;50.80;;;;;;5093362;28;19920;-61
2022/03/27 12:47:39;;;;;;;;;;;24.40;49.50;;;;;;5093129;28;20381;-61
2022/03/27 12:50:06;;;;;;;;;;;24.50;48.40;;;;;;5093108;28;20023;-61
2022/03/27 12:52:31;;;;;;;;;;;25.00;48.50;;;;;;5092858;28;19931;-61
2022/03/27 12:55:00;;;;;;;;;;;24.70;47.60;;;;;;5093264;28;19928;-61
2022/03/27 12:57:45;;;;;;;;;;;24.90;48.90;;;;;;5074629;28;19920;-61
2022/03/27 13:00:13;;;;;;;;;;;24.90;47.60;;;;;;5093016;28;20363;-61
2022/03/27 13:02:39;;;;;;;;;;;24.60;47.10;;;;;;5091791;28;19928;-61
2022/03/27 13:05:05;;;;;;;;;;;24.40;48.70;;;;;;5093576;28;20018;-61
2022/03/27 13:08:02;;;;;;;;;;;24.90;47.30;;;;;;5093706;28;19967;-61
2022/03/27 13:10:28;;;;;;;;;;;24.70;47.10;;;;;;5091674;28;20374;-61
2022/03/27 13:12:55;;;;;;;;;;;24.50;48.80;;;;;;5093505;28;19934;-61
2022/03/27 13:15:35;;;;;;;;;;;24.10;49.00;;;;;;5093465;28;19971;-61
2022/03/27 13:18:08;;;;;;;;;;;23.70;49.60;;;;;;5079602;28;19925;-61
2022/03/27 13:20:34;;;;;;;;;;;23.70;49.70;;;;;;5053194;28;20138;-61
2022/03/27 13:23:01;;;;;;;;;;;23.90;50.30;;;;;;5052944;28;19924;-61
2022/03/27 13:25:27;;;;;;;;;;;24.00;49.70;;;;;;5052631;28;19979;-61
2022/03/27 13:27:53;;;;;;;;;;;24.10;49.60;;;;;;5052811;28;19950;-61
2022/03/27 13:30:19;;;;;;;;;;;24.00;49.40;;;;;;5058618;28;19937;-61
2022/03/27 13:32:45;;;;;;;;;;;24.60;49.20;;;;;;5034408;28;19978;-61
2022/03/27 13:35:10;;;;;;;;;;;24.30;49.60;;;;;;5041971;28;19939;-61
2022/03/27 13:37:36;;;;;;;;;;;23.70;50.70;;;;;;5068371;28;19939;-61
2022/03/27 13:40:02;;;;;;;;;;;23.50;50.60;;;;;;5082204;28;19957;-61
2022/03/27 13:45:12;;;;;;;;;;;24.00;50.40;;;;;;5071659;28;19994;-62
2022/03/27 13:47:38;;;;;;;;;;;24.30;49.70;;;;;;5073232;28;20366;-61
2022/03/27 13:50:03;;;;;;;;;;;24.70;49.60;;;;;;5055242;28;19929;-62
2022/03/27 13:52:29;;;;;;;;;;;24.40;48.70;;;;;;5053572;28;20374;-61
2022/03/27 13:54:55;;;;;;;;;;;24.30;48.30;;;;;;5054813;28;20279;-61
2022/03/27 13:57:20;;;;;;;;;;;24.30;48.70;;;;;;5074661;28;19925;-61
2022/03/27 13:59:46;;;;;;;;;;;24.20;48.60;;;;;;5051439;28;19924;-61
2022/03/27 14:02:12;;;;;;;;;;;24.70;48.60;;;;;;5065681;28;20323;-61
2022/03/27 14:04:38;;;;;;;;;;;24.70;49.00;;;;;;5076960;28;19925;-62
2022/03/27 14:07:03;;;;;;;;;;;24.40;48.00;;;;;;5076095;28;19929;-61
2022/03/27 14:09:29;;;;;;;;;;;24.30;49.50;;;;;;5077999;28;19924;-61
2022/03/27 14:11:55;;;;;;;;;;;24.70;49.50;;;;;;5095880;28;20374;-61
2022/03/27 14:14:20;;;;;;;;;;;24.60;49.60;;;;;;5096386;28;19924;-62
2022/03/27 14:16:46;;;;;;;;;;;24.60;49.30;;;;;;5096513;28;20336;-61
2022/03/27 14:19:12;;;;;;;;;;;24.50;49.20;;;;;;5096646;28;19985;-61
2022/03/27 14:21:38;;;;;;;;;;;23.90;50.10;;;;;;5085153;28;19924;-61
2022/03/27 14:24:04;;;;;;;;;;;23.30;51.60;;;;;;5086150;28;19973;-62
2022/03/27 14:26:29;;;;;;;;;;;23.20;51.50;;;;;;5089941;28;20405;-61
2022/03/27 14:28:55;;;;;;;;;;;23.00;52.10;;;;;;5095590;28;19924;-61
2022/03/27 14:31:21;;;;;;;;;;;22.70;53.20;;;;;;5096240;28;19954;-61
2022/03/27 14:33:47;;;;;;;;;;;22.40;53.60;;;;;;5096675;28;20374;-62